sensor_id;sensor_type;location;lat;lon;timestamp;temperature;humidity
69543;SHT31;56762;49.494;11.768;2022-10-16T00:01:17;14.58;94.94
69543;SHT31;56762;49.494;11.768;2022-10-16T00:03:52;14.58;94.97
69543;SHT31;56762;49.494;11.768;2022-10-16T00:06:25;14.58;95.00
69543;SHT31;56762;49.494;11.768;2022-10-16T00:08:53;14.59;95.04
69543;SHT31;56762;49.494;11.768;2022-10-16T00:11:23;14.58;95.00
69543;SHT31;56762;49.494;11.768;2022-10-16T00:13:56;14.59;95.07
69543;SHT31;56762;49.494;11.768;2022-10-16T00:16:27;14.58;95.08
69543;SHT31;56762;49.494;11.768;2022-10-16T00:18:55;14.55;95.14
69543;SHT31;56762;49.494;11.768;2022-10-16T00:21:25;14.55;95.15
69543;SHT31;56762;49.494;11.768;2022-10-16T00:23:56;14.55;95.08
69543;SHT31;56762;49.494;11.768;2022-10-16T00:26:26;14.56;95.12
69543;SHT31;56762;49.494;11.768;2022-10-16T00:28:55;14.56;95.11
69543;SHT31;56762;49.494;11.768;2022-10-16T00:31:23;14.55;95.08
69543;SHT31;56762;49.494;11.768;2022-10-16T00:33:55;14.56;95.09
69543;SHT31;56762;49.494;11.768;2022-10-16T00:36:25;14.58;95.15
69543;SHT31;56762;49.494;11.768;2022-10-16T00:38:54;14.55;95.20
69543;SHT31;56762;49.494;11.768;2022-10-16T00:41:26;14.55;95.17
69543;SHT31;56762;49.494;11.768;2022-10-16T00:43:56;14.55;95.24
69543;SHT31;56762;49.494;11.768;2022-10-16T00:46:27;14.52;95.28
69543;SHT31;56762;49.494;11.768;2022-10-16T00:49:00;14.52;95.38
69543;SHT31;56762;49.494;11.768;2022-10-16T00:51:33;14.52;95.37
69543;SHT31;56762;49.494;11.768;2022-10-16T00:54:04;14.53;95.31
69543;SHT31;56762;49.494;11.768;2022-10-16T00:56:33;14.52;95.33
69543;SHT31;56762;49.494;11.768;2022-10-16T00:59:03;14.52;95.35
69543;SHT31;56762;49.494;11.768;2022-10-16T01:01:34;14.50;95.31
69543;SHT31;56762;49.494;11.768;2022-10-16T01:04:04;14.48;95.31
69543;SHT31;56762;49.494;11.768;2022-10-16T01:06:36;14.48;95.34
69543;SHT31;56762;49.494;11.768;2022-10-16T01:09:15;14.46;95.30
69543;SHT31;56762;49.494;11.768;2022-10-16T01:11:51;14.45;95.33
69543;SHT31;56762;49.494;11.768;2022-10-16T01:14:27;14.43;95.36
69543;SHT31;56762;49.494;11.768;2022-10-16T01:17:04;14.42;95.44
69543;SHT31;56762;49.494;11.768;2022-10-16T01:19:44;14.40;95.42
69543;SHT31;56762;49.494;11.768;2022-10-16T01:22:20;14.40;95.51
69543;SHT31;56762;49.494;11.768;2022-10-16T01:24:54;14.38;95.52
69543;SHT31;56762;49.494;11.768;2022-10-16T01:27:27;14.39;95.62
69543;SHT31;56762;49.494;11.768;2022-10-16T01:30:00;14.39;95.61
69543;SHT31;56762;49.494;11.768;2022-10-16T01:35:38;14.40;95.56
69543;SHT31;56762;49.494;11.768;2022-10-16T01:38:10;14.39;95.50
69543;SHT31;56762;49.494;11.768;2022-10-16T01:40:44;14.38;95.54
69543;SHT31;56762;49.494;11.768;2022-10-16T01:43:17;14.40;95.54
69543;SHT31;56762;49.494;11.768;2022-10-16T01:45:47;14.42;95.46
69543;SHT31;56762;49.494;11.768;2022-10-16T01:48:17;14.40;95.54
69543;SHT31;56762;49.494;11.768;2022-10-16T01:50:52;14.40;95.52
69543;SHT31;56762;49.494;11.768;2022-10-16T01:53:22;14.39;95.61
69543;SHT31;56762;49.494;11.768;2022-10-16T01:55:52;14.36;95.62
69543;SHT31;56762;49.494;11.768;2022-10-16T01:58:23;14.36;95.64
69543;SHT31;56762;49.494;11.768;2022-10-16T02:00:54;14.35;95.64
69543;SHT31;56762;49.494;11.768;2022-10-16T02:03:24;14.36;95.66
69543;SHT31;56762;49.494;11.768;2022-10-16T02:05:54;14.35;95.62
69543;SHT31;56762;49.494;11.768;2022-10-16T02:08:25;14.32;95.64
69543;SHT31;56762;49.494;11.768;2022-10-16T02:10:55;14.30;95.65
69543;SHT31;56762;49.494;11.768;2022-10-16T02:13:30;14.32;95.68
69543;SHT31;56762;49.494;11.768;2022-10-16T02:15:58;14.33;95.66
69543;SHT31;56762;49.494;11.768;2022-10-16T02:18:27;14.32;95.72
69543;SHT31;56762;49.494;11.768;2022-10-16T02:20:59;14.30;95.75
69543;SHT31;56762;49.494;11.768;2022-10-16T02:23:35;14.32;95.73
69543;SHT31;56762;49.494;11.768;2022-10-16T02:26:07;14.30;95.76
69543;SHT31;56762;49.494;11.768;2022-10-16T02:28:41;14.30;95.75
69543;SHT31;56762;49.494;11.768;2022-10-16T02:31:12;14.30;95.79
69543;SHT31;56762;49.494;11.768;2022-10-16T02:33:44;14.32;95.79
69543;SHT31;56762;49.494;11.768;2022-10-16T02:36:14;14.33;95.82
69543;SHT31;56762;49.494;11.768;2022-10-16T02:38:43;14.32;95.73
69543;SHT31;56762;49.494;11.768;2022-10-16T02:41:12;14.33;95.78
69543;SHT31;56762;49.494;11.768;2022-10-16T02:43:41;14.35;95.71
69543;SHT31;56762;49.494;11.768;2022-10-16T02:46:09;14.38;95.68
69543;SHT31;56762;49.494;11.768;2022-10-16T02:48:37;14.39;95.65
69543;SHT31;56762;49.494;11.768;2022-10-16T02:51:06;14.39;95.68
69543;SHT31;56762;49.494;11.768;2022-10-16T02:53:34;14.43;95.63
69543;SHT31;56762;49.494;11.768;2022-10-16T02:56:02;14.42;95.57
69543;SHT31;56762;49.494;11.768;2022-10-16T02:58:33;14.42;95.51
69543;SHT31;56762;49.494;11.768;2022-10-16T03:01:03;14.43;95.36
69543;SHT31;56762;49.494;11.768;2022-10-16T03:03:31;14.42;95.37
69543;SHT31;56762;49.494;11.768;2022-10-16T03:05:59;14.42;95.38
69543;SHT31;56762;49.494;11.768;2022-10-16T03:08:27;14.43;95.42
69543;SHT31;56762;49.494;11.768;2022-10-16T03:10:56;14.42;95.37
69543;SHT31;56762;49.494;11.768;2022-10-16T03:13:25;14.40;95.39
69543;SHT31;56762;49.494;11.768;2022-10-16T03:15:53;14.43;95.37
69543;SHT31;56762;49.494;11.768;2022-10-16T03:18:23;14.42;95.37
69543;SHT31;56762;49.494;11.768;2022-10-16T03:20:51;14.40;95.32
69543;SHT31;56762;49.494;11.768;2022-10-16T03:23:19;14.43;95.30
69543;SHT31;56762;49.494;11.768;2022-10-16T03:25:47;14.40;95.34
69543;SHT31;56762;49.494;11.768;2022-10-16T03:28:17;14.39;95.37
69543;SHT31;56762;49.494;11.768;2022-10-16T03:30:45;14.39;95.37
69543;SHT31;56762;49.494;11.768;2022-10-16T03:33:13;14.38;95.38
69543;SHT31;56762;49.494;11.768;2022-10-16T03:35:42;14.38;95.42
69543;SHT31;56762;49.494;11.768;2022-10-16T03:38:11;14.36;95.38
69543;SHT31;56762;49.494;11.768;2022-10-16T03:40:40;14.38;95.40
69543;SHT31;56762;49.494;11.768;2022-10-16T03:43:08;14.38;95.35
69543;SHT31;56762;49.494;11.768;2022-10-16T03:45:36;14.39;95.32
69543;SHT31;56762;49.494;11.768;2022-10-16T03:48:05;14.36;95.28
69543;SHT31;56762;49.494;11.768;2022-10-16T03:50:33;14.39;95.12
69543;SHT31;56762;49.494;11.768;2022-10-16T03:53:02;14.39;95.14
69543;SHT31;56762;49.494;11.768;2022-10-16T03:55:30;14.40;95.12
69543;SHT31;56762;49.494;11.768;2022-10-16T03:57:58;14.38;95.18
69543;SHT31;56762;49.494;11.768;2022-10-16T04:00:26;14.36;95.24
69543;SHT31;56762;49.494;11.768;2022-10-16T04:02:54;14.36;95.29
69543;SHT31;56762;49.494;11.768;2022-10-16T04:05:22;14.36;95.25
69543;SHT31;56762;49.494;11.768;2022-10-16T04:07:50;14.38;95.25
69543;SHT31;56762;49.494;11.768;2022-10-16T04:10:19;14.38;95.26
69543;SHT31;56762;49.494;11.768;2022-10-16T04:12:47;14.38;95.29
69543;SHT31;56762;49.494;11.768;2022-10-16T04:15:15;14.39;95.25
69543;SHT31;56762;49.494;11.768;2022-10-16T04:17:43;14.40;95.25
69543;SHT31;56762;49.494;11.768;2022-10-16T04:20:11;14.38;95.18
69543;SHT31;56762;49.494;11.768;2022-10-16T04:22:39;14.39;95.18
69543;SHT31;56762;49.494;11.768;2022-10-16T04:25:07;14.39;95.15
69543;SHT31;56762;49.494;11.768;2022-10-16T04:27:38;14.38;95.13
69543;SHT31;56762;49.494;11.768;2022-10-16T04:30:12;14.39;95.11
69543;SHT31;56762;49.494;11.768;2022-10-16T04:32:41;14.36;95.05
69543;SHT31;56762;49.494;11.768;2022-10-16T04:35:08;14.36;95.03
69543;SHT31;56762;49.494;11.768;2022-10-16T04:37:36;14.36;95.04
69543;SHT31;56762;49.494;11.768;2022-10-16T04:40:05;14.35;95.05
69543;SHT31;56762;49.494;11.768;2022-10-16T04:42:33;14.38;95.08
69543;SHT31;56762;49.494;11.768;2022-10-16T04:45:02;14.38;95.05
69543;SHT31;56762;49.494;11.768;2022-10-16T04:47:40;14.36;95.01
69543;SHT31;56762;49.494;11.768;2022-10-16T04:50:08;14.33;95.05
69543;SHT31;56762;49.494;11.768;2022-10-16T04:52:37;14.35;95.03
69543;SHT31;56762;49.494;11.768;2022-10-16T04:55:05;14.33;95.07
69543;SHT31;56762;49.494;11.768;2022-10-16T04:57:34;14.35;95.15
69543;SHT31;56762;49.494;11.768;2022-10-16T05:00:04;14.32;95.12
69543;SHT31;56762;49.494;11.768;2022-10-16T05:02:32;14.33;95.15
69543;SHT31;56762;49.494;11.768;2022-10-16T05:05:00;14.30;95.16
69543;SHT31;56762;49.494;11.768;2022-10-16T05:07:28;14.30;95.20
69543;SHT31;56762;49.494;11.768;2022-10-16T05:09:55;14.33;95.14
69543;SHT31;56762;49.494;11.768;2022-10-16T05:12:23;14.30;95.17
69543;SHT31;56762;49.494;11.768;2022-10-16T05:14:51;14.30;95.23
69543;SHT31;56762;49.494;11.768;2022-10-16T05:17:21;14.29;95.19
69543;SHT31;56762;49.494;11.768;2022-10-16T05:19:49;14.28;95.25
69543;SHT31;56762;49.494;11.768;2022-10-16T05:22:17;14.29;95.25
69543;SHT31;56762;49.494;11.768;2022-10-16T05:24:45;14.26;95.21
69543;SHT31;56762;49.494;11.768;2022-10-16T05:27:13;14.28;95.26
69543;SHT31;56762;49.494;11.768;2022-10-16T05:29:45;14.25;95.24
69543;SHT31;56762;49.494;11.768;2022-10-16T05:32:14;14.25;95.22
69543;SHT31;56762;49.494;11.768;2022-10-16T05:34:44;14.25;95.21
69543;SHT31;56762;49.494;11.768;2022-10-16T05:37:13;14.24;95.31
69543;SHT31;56762;49.494;11.768;2022-10-16T05:39:41;14.24;95.25
69543;SHT31;56762;49.494;11.768;2022-10-16T05:42:09;14.24;95.24
69543;SHT31;56762;49.494;11.768;2022-10-16T05:44:37;14.24;95.19
69543;SHT31;56762;49.494;11.768;2022-10-16T05:47:05;14.22;95.15
69543;SHT31;56762;49.494;11.768;2022-10-16T05:49:32;14.22;95.14
69543;SHT31;56762;49.494;11.768;2022-10-16T05:52:07;14.19;95.17
69543;SHT31;56762;49.494;11.768;2022-10-16T05:54:35;14.17;95.13
69543;SHT31;56762;49.494;11.768;2022-10-16T05:57:04;14.15;95.23
69543;SHT31;56762;49.494;11.768;2022-10-16T05:59:32;14.12;95.29
69543;SHT31;56762;49.494;11.768;2022-10-16T06:02:00;14.12;95.32
69543;SHT31;56762;49.494;11.768;2022-10-16T06:04:27;14.12;95.40
69543;SHT31;56762;49.494;11.768;2022-10-16T06:06:58;14.11;95.41
69543;SHT31;56762;49.494;11.768;2022-10-16T06:09:28;14.12;95.40
69543;SHT31;56762;49.494;11.768;2022-10-16T06:11:55;14.09;95.30
69543;SHT31;56762;49.494;11.768;2022-10-16T06:14:23;14.05;95.33
69543;SHT31;56762;49.494;11.768;2022-10-16T06:16:51;14.07;95.39
69543;SHT31;56762;49.494;11.768;2022-10-16T06:19:19;14.05;95.40
69543;SHT31;56762;49.494;11.768;2022-10-16T06:21:47;14.08;95.47
69543;SHT31;56762;49.494;11.768;2022-10-16T06:24:15;14.11;95.55
69543;SHT31;56762;49.494;11.768;2022-10-16T06:26:44;14.11;95.59
69543;SHT31;56762;49.494;11.768;2022-10-16T06:29:12;14.15;95.61
69543;SHT31;56762;49.494;11.768;2022-10-16T06:31:40;14.18;95.59
69543;SHT31;56762;49.494;11.768;2022-10-16T06:34:09;14.22;95.54
69543;SHT31;56762;49.494;11.768;2022-10-16T06:36:38;14.25;95.50
69543;SHT31;56762;49.494;11.768;2022-10-16T06:39:06;14.26;95.40
69543;SHT31;56762;49.494;11.768;2022-10-16T06:41:35;14.30;95.28
69543;SHT31;56762;49.494;11.768;2022-10-16T06:44:06;14.33;95.05
69543;SHT31;56762;49.494;11.768;2022-10-16T06:46:34;14.39;95.11
69543;SHT31;56762;49.494;11.768;2022-10-16T06:49:04;14.49;94.94
69543;SHT31;56762;49.494;11.768;2022-10-16T06:51:32;14.55;94.65
69543;SHT31;56762;49.494;11.768;2022-10-16T06:54:07;14.59;94.55
69543;SHT31;56762;49.494;11.768;2022-10-16T06:56:36;14.66;94.32
69543;SHT31;56762;49.494;11.768;2022-10-16T06:59:05;14.76;94.06
69543;SHT31;56762;49.494;11.768;2022-10-16T07:01:33;14.83;93.87
69543;SHT31;56762;49.494;11.768;2022-10-16T07:04:02;14.84;93.96
69543;SHT31;56762;49.494;11.768;2022-10-16T07:06:32;14.91;93.85
69543;SHT31;56762;49.494;11.768;2022-10-16T07:09:03;14.91;93.74
69543;SHT31;56762;49.494;11.768;2022-10-16T07:11:32;14.93;93.70
69543;SHT31;56762;49.494;11.768;2022-10-16T07:14:00;14.97;93.75
69543;SHT31;56762;49.494;11.768;2022-10-16T07:16:31;15.04;93.66
69543;SHT31;56762;49.494;11.768;2022-10-16T07:19:01;15.14;93.40
69543;SHT31;56762;49.494;11.768;2022-10-16T07:21:31;15.21;93.30
69543;SHT31;56762;49.494;11.768;2022-10-16T07:24:04;15.27;92.88
69543;SHT31;56762;49.494;11.768;2022-10-16T07:26:34;15.35;92.70
69543;SHT31;56762;49.494;11.768;2022-10-16T07:29:03;15.38;92.29
69543;SHT31;56762;49.494;11.768;2022-10-16T07:31:33;15.42;92.34
69543;SHT31;56762;49.494;11.768;2022-10-16T07:34:01;15.44;92.40
69543;SHT31;56762;49.494;11.768;2022-10-16T07:36:29;15.49;92.32
69543;SHT31;56762;49.494;11.768;2022-10-16T07:38:57;15.45;91.83
69543;SHT31;56762;49.494;11.768;2022-10-16T07:41:26;15.44;91.80
69543;SHT31;56762;49.494;11.768;2022-10-16T07:43:55;15.42;91.98
69543;SHT31;56762;49.494;11.768;2022-10-16T07:46:26;15.37;92.01
69543;SHT31;56762;49.494;11.768;2022-10-16T07:48:56;15.35;91.98
69543;SHT31;56762;49.494;11.768;2022-10-16T07:51:25;15.37;92.11
69543;SHT31;56762;49.494;11.768;2022-10-16T07:53:54;15.38;92.17
69543;SHT31;56762;49.494;11.768;2022-10-16T07:56:23;15.44;91.97
69543;SHT31;56762;49.494;11.768;2022-10-16T07:58:51;15.44;91.48
69543;SHT31;56762;49.494;11.768;2022-10-16T08:01:19;15.44;91.94
69543;SHT31;56762;49.494;11.768;2022-10-16T08:03:49;15.47;92.21
69543;SHT31;56762;49.494;11.768;2022-10-16T08:06:20;15.48;92.05
69543;SHT31;56762;49.494;11.768;2022-10-16T08:08:53;15.51;92.22
69543;SHT31;56762;49.494;11.768;2022-10-16T08:11:21;15.55;91.93
69543;SHT31;56762;49.494;11.768;2022-10-16T08:13:50;15.59;91.73
69543;SHT31;56762;49.494;11.768;2022-10-16T08:16:18;15.66;91.85
69543;SHT31;56762;49.494;11.768;2022-10-16T08:18:46;15.70;91.67
69543;SHT31;56762;49.494;11.768;2022-10-16T08:21:16;15.70;91.75
69543;SHT31;56762;49.494;11.768;2022-10-16T08:23:48;15.73;91.83
69543;SHT31;56762;49.494;11.768;2022-10-16T08:26:24;15.77;91.69
69543;SHT31;56762;49.494;11.768;2022-10-16T08:28:52;15.78;91.48
69543;SHT31;56762;49.494;11.768;2022-10-16T08:31:21;15.82;91.56
69543;SHT31;56762;49.494;11.768;2022-10-16T08:33:49;15.85;91.40
69543;SHT31;56762;49.494;11.768;2022-10-16T08:36:17;15.86;91.34
69543;SHT31;56762;49.494;11.768;2022-10-16T08:38:49;15.90;90.84
69543;SHT31;56762;49.494;11.768;2022-10-16T08:41:29;15.95;91.29
69543;SHT31;56762;49.494;11.768;2022-10-16T08:44:16;15.96;91.09
69543;SHT31;56762;49.494;11.768;2022-10-16T08:46:56;15.93;90.98
69543;SHT31;56762;49.494;11.768;2022-10-16T08:49:29;15.95;91.02
69543;SHT31;56762;49.494;11.768;2022-10-16T08:51:58;15.96;90.90
69543;SHT31;56762;49.494;11.768;2022-10-16T08:54:30;15.95;90.77
69543;SHT31;56762;49.494;11.768;2022-10-16T08:57:17;15.99;90.64
69543;SHT31;56762;49.494;11.768;2022-10-16T09:03:43;16.10;90.23
69543;SHT31;56762;49.494;11.768;2022-10-16T09:06:29;16.09;90.45
69543;SHT31;56762;49.494;11.768;2022-10-16T09:09:08;16.05;90.39
69543;SHT31;56762;49.494;11.768;2022-10-16T09:11:50;16.00;90.38
69543;SHT31;56762;49.494;11.768;2022-10-16T09:14:46;15.99;90.67
69543;SHT31;56762;49.494;11.768;2022-10-16T09:17:37;16.02;90.82
69543;SHT31;56762;49.494;11.768;2022-10-16T09:20:28;16.05;90.73
69543;SHT31;56762;49.494;11.768;2022-10-16T09:23:10;16.10;90.75
69543;SHT31;56762;49.494;11.768;2022-10-16T09:25:44;16.19;90.92
69543;SHT31;56762;49.494;11.768;2022-10-16T09:28:16;16.23;90.77
69543;SHT31;56762;49.494;11.768;2022-10-16T09:30:45;16.29;90.65
69543;SHT31;56762;49.494;11.768;2022-10-16T09:33:17;16.34;90.68
69543;SHT31;56762;49.494;11.768;2022-10-16T09:35:47;16.41;90.83
69543;SHT31;56762;49.494;11.768;2022-10-16T09:38:25;16.48;90.49
69543;SHT31;56762;49.494;11.768;2022-10-16T09:40:55;16.58;90.31
69543;SHT31;56762;49.494;11.768;2022-10-16T09:43:34;16.70;90.13
69543;SHT31;56762;49.494;11.768;2022-10-16T09:46:06;16.77;89.57
69543;SHT31;56762;49.494;11.768;2022-10-16T09:48:37;16.82;89.23
69543;SHT31;56762;49.494;11.768;2022-10-16T09:51:17;16.88;89.45
69543;SHT31;56762;49.494;11.768;2022-10-16T09:53:46;16.96;89.14
69543;SHT31;56762;49.494;11.768;2022-10-16T09:56:22;17.05;89.05
69543;SHT31;56762;49.494;11.768;2022-10-16T09:58:54;17.14;88.74
69543;SHT31;56762;49.494;11.768;2022-10-16T10:01:26;17.25;88.84
69543;SHT31;56762;49.494;11.768;2022-10-16T10:03:56;17.32;88.23
69543;SHT31;56762;49.494;11.768;2022-10-16T10:06:29;17.39;87.91
69543;SHT31;56762;49.494;11.768;2022-10-16T10:09:06;17.42;87.26
69543;SHT31;56762;49.494;11.768;2022-10-16T10:11:39;17.45;87.03
69543;SHT31;56762;49.494;11.768;2022-10-16T10:14:16;17.45;86.95
69543;SHT31;56762;49.494;11.768;2022-10-16T10:16:45;17.46;87.50
69543;SHT31;56762;49.494;11.768;2022-10-16T10:19:15;17.46;87.87
69543;SHT31;56762;49.494;11.768;2022-10-16T10:21:43;17.47;87.31
69543;SHT31;56762;49.494;11.768;2022-10-16T10:24:12;17.53;87.20
69543;SHT31;56762;49.494;11.768;2022-10-16T10:26:49;17.54;87.17
69543;SHT31;56762;49.494;11.768;2022-10-16T10:29:28;17.56;86.97
69543;SHT31;56762;49.494;11.768;2022-10-16T10:32:08;17.57;87.08
69543;SHT31;56762;49.494;11.768;2022-10-16T10:34:51;17.54;86.41
69543;SHT31;56762;49.494;11.768;2022-10-16T10:37:34;17.57;86.75
69543;SHT31;56762;49.494;11.768;2022-10-16T10:40:13;17.57;86.83
69543;SHT31;56762;49.494;11.768;2022-10-16T10:42:49;17.63;86.70
69543;SHT31;56762;49.494;11.768;2022-10-16T10:45:26;17.69;87.10
69543;SHT31;56762;49.494;11.768;2022-10-16T10:48:05;17.73;87.10
69543;SHT31;56762;49.494;11.768;2022-10-16T10:50:43;17.76;86.65
69543;SHT31;56762;49.494;11.768;2022-10-16T10:53:24;17.74;86.30
69543;SHT31;56762;49.494;11.768;2022-10-16T10:56:06;17.74;86.10
69543;SHT31;56762;49.494;11.768;2022-10-16T10:59:07;17.70;86.20
69543;SHT31;56762;49.494;11.768;2022-10-16T11:01:46;17.73;86.08
69543;SHT31;56762;49.494;11.768;2022-10-16T11:07:20;17.83;86.04
69543;SHT31;56762;49.494;11.768;2022-10-16T11:09:51;17.87;86.63
69543;SHT31;56762;49.494;11.768;2022-10-16T11:12:25;17.83;86.54
69543;SHT31;56762;49.494;11.768;2022-10-16T11:14:56;17.86;86.56
69543;SHT31;56762;49.494;11.768;2022-10-16T11:17:29;17.86;86.51
69543;SHT31;56762;49.494;11.768;2022-10-16T11:20:03;17.91;86.66
69543;SHT31;56762;49.494;11.768;2022-10-16T11:22:35;17.97;86.77
69543;SHT31;56762;49.494;11.768;2022-10-16T11:25:12;18.02;86.42
69543;SHT31;56762;49.494;11.768;2022-10-16T11:27:43;18.08;86.47
69543;SHT31;56762;49.494;11.768;2022-10-16T11:30:16;18.08;85.18
69543;SHT31;56762;49.494;11.768;2022-10-16T11:32:54;18.15;85.38
69543;SHT31;56762;49.494;11.768;2022-10-16T11:35:33;18.25;85.67
69543;SHT31;56762;49.494;11.768;2022-10-16T11:38:12;18.34;85.69
69543;SHT31;56762;49.494;11.768;2022-10-16T11:40:45;18.35;85.39
69543;SHT31;56762;49.494;11.768;2022-10-16T11:43:21;18.38;85.60
69543;SHT31;56762;49.494;11.768;2022-10-16T11:45:51;18.39;85.64
69543;SHT31;56762;49.494;11.768;2022-10-16T11:48:27;18.42;85.76
69543;SHT31;56762;49.494;11.768;2022-10-16T11:51:06;18.48;85.95
69543;SHT31;56762;49.494;11.768;2022-10-16T11:53:45;18.48;85.32
69543;SHT31;56762;49.494;11.768;2022-10-16T11:56:16;18.47;85.10
69543;SHT31;56762;49.494;11.768;2022-10-16T11:58:53;18.45;84.80
69543;SHT31;56762;49.494;11.768;2022-10-16T12:01:28;18.47;85.10
69543;SHT31;56762;49.494;11.768;2022-10-16T12:04:05;18.47;85.41
69543;SHT31;56762;49.494;11.768;2022-10-16T12:06:37;18.51;84.50
69543;SHT31;56762;49.494;11.768;2022-10-16T12:09:15;18.77;81.01
69543;SHT31;56762;49.494;11.768;2022-10-16T12:11:47;18.93;79.44
69543;SHT31;56762;49.494;11.768;2022-10-16T12:14:34;18.95;80.30
69543;SHT31;56762;49.494;11.768;2022-10-16T12:17:25;18.96;80.64
69543;SHT31;56762;49.494;11.768;2022-10-16T12:19:59;19.02;79.40
69543;SHT31;56762;49.494;11.768;2022-10-16T12:22:29;19.17;78.88
69543;SHT31;56762;49.494;11.768;2022-10-16T12:25:05;19.26;79.72
69543;SHT31;56762;49.494;11.768;2022-10-16T12:27:33;19.31;79.38
69543;SHT31;56762;49.494;11.768;2022-10-16T12:30:04;19.32;78.33
69543;SHT31;56762;49.494;11.768;2022-10-16T12:32:35;19.28;78.65
69543;SHT31;56762;49.494;11.768;2022-10-16T12:35:20;19.24;78.77
69543;SHT31;56762;49.494;11.768;2022-10-16T12:37:49;19.23;78.10
69543;SHT31;56762;49.494;11.768;2022-10-16T12:40:26;19.19;77.49
69543;SHT31;56762;49.494;11.768;2022-10-16T12:42:55;19.13;77.83
69543;SHT31;56762;49.494;11.768;2022-10-16T12:45:26;19.13;78.39
69543;SHT31;56762;49.494;11.768;2022-10-16T12:47:55;19.17;76.38
69543;SHT31;56762;49.494;11.768;2022-10-16T12:50:28;19.21;76.99
69543;SHT31;56762;49.494;11.768;2022-10-16T12:52:59;19.24;76.98
69543;SHT31;56762;49.494;11.768;2022-10-16T12:55:34;19.41;75.12
69543;SHT31;56762;49.494;11.768;2022-10-16T12:58:16;19.38;75.15
69543;SHT31;56762;49.494;11.768;2022-10-16T13:00:52;19.27;75.97
69543;SHT31;56762;49.494;11.768;2022-10-16T13:06:34;19.20;76.93
69543;SHT31;56762;49.494;11.768;2022-10-16T13:09:28;19.16;77.14
69543;SHT31;56762;49.494;11.768;2022-10-16T13:12:28;19.24;75.98
69543;SHT31;56762;49.494;11.768;2022-10-16T13:15:11;19.21;76.08
69543;SHT31;56762;49.494;11.768;2022-10-16T13:17:48;19.21;76.72
69543;SHT31;56762;49.494;11.768;2022-10-16T13:20:21;19.35;75.03
69543;SHT31;56762;49.494;11.768;2022-10-16T13:23:05;19.57;73.00
69543;SHT31;56762;49.494;11.768;2022-10-16T13:25:43;19.61;74.14
69543;SHT31;56762;49.494;11.768;2022-10-16T13:28:21;19.61;73.01
69543;SHT31;56762;49.494;11.768;2022-10-16T13:30:53;19.55;73.21
69543;SHT31;56762;49.494;11.768;2022-10-16T13:33:30;19.47;74.40
69543;SHT31;56762;49.494;11.768;2022-10-16T13:36:01;19.44;75.19
69543;SHT31;56762;49.494;11.768;2022-10-16T13:38:32;19.60;74.47
69543;SHT31;56762;49.494;11.768;2022-10-16T13:41:02;19.54;75.02
69543;SHT31;56762;49.494;11.768;2022-10-16T13:43:32;19.48;75.24
69543;SHT31;56762;49.494;11.768;2022-10-16T13:46:02;19.38;74.77
69543;SHT31;56762;49.494;11.768;2022-10-16T13:48:32;19.35;75.55
69543;SHT31;56762;49.494;11.768;2022-10-16T13:51:12;19.28;75.58
69543;SHT31;56762;49.494;11.768;2022-10-16T13:53:43;19.21;76.35
69543;SHT31;56762;49.494;11.768;2022-10-16T13:56:13;19.20;76.51
69543;SHT31;56762;49.494;11.768;2022-10-16T13:58:42;19.21;76.48
69543;SHT31;56762;49.494;11.768;2022-10-16T14:01:19;19.20;76.71
69543;SHT31;56762;49.494;11.768;2022-10-16T14:03:48;19.14;76.76
69543;SHT31;56762;49.494;11.768;2022-10-16T14:06:19;19.06;76.62
69543;SHT31;56762;49.494;11.768;2022-10-16T14:08:53;19.03;77.10
69543;SHT31;56762;49.494;11.768;2022-10-16T14:11:23;19.02;77.31
69543;SHT31;56762;49.494;11.768;2022-10-16T14:13:52;18.95;77.54
69543;SHT31;56762;49.494;11.768;2022-10-16T14:16:22;18.90;78.15
69543;SHT31;56762;49.494;11.768;2022-10-16T14:18:56;18.92;78.38
69543;SHT31;56762;49.494;11.768;2022-10-16T14:21:25;18.90;78.70
69543;SHT31;56762;49.494;11.768;2022-10-16T14:23:55;18.86;79.02
69543;SHT31;56762;49.494;11.768;2022-10-16T14:26:24;18.82;79.24
69543;SHT31;56762;49.494;11.768;2022-10-16T14:29:10;18.80;79.52
69543;SHT31;56762;49.494;11.768;2022-10-16T14:31:39;18.88;78.04
69543;SHT31;56762;49.494;11.768;2022-10-16T14:34:22;18.98;77.50
69543;SHT31;56762;49.494;11.768;2022-10-16T14:36:51;18.98;77.78
69543;SHT31;56762;49.494;11.768;2022-10-16T14:39:21;18.99;77.71
69543;SHT31;56762;49.494;11.768;2022-10-16T14:41:50;18.92;77.95
69543;SHT31;56762;49.494;11.768;2022-10-16T14:44:20;18.86;78.54
69543;SHT31;56762;49.494;11.768;2022-10-16T14:46:50;18.77;78.74
69543;SHT31;56762;49.494;11.768;2022-10-16T14:49:19;18.72;78.97
69543;SHT31;56762;49.494;11.768;2022-10-16T14:51:49;18.70;79.26
69543;SHT31;56762;49.494;11.768;2022-10-16T14:54:20;18.70;79.29
69543;SHT31;56762;49.494;11.768;2022-10-16T14:56:50;18.66;79.65
69543;SHT31;56762;49.494;11.768;2022-10-16T14:59:19;18.72;77.95
69543;SHT31;56762;49.494;11.768;2022-10-16T15:01:49;18.70;77.81
69543;SHT31;56762;49.494;11.768;2022-10-16T15:04:17;18.63;78.57
69543;SHT31;56762;49.494;11.768;2022-10-16T15:06:46;18.62;78.74
69543;SHT31;56762;49.494;11.768;2022-10-16T15:09:13;18.58;79.13
69543;SHT31;56762;49.494;11.768;2022-10-16T15:11:42;18.53;79.53
69543;SHT31;56762;49.494;11.768;2022-10-16T15:14:11;18.49;79.83
69543;SHT31;56762;49.494;11.768;2022-10-16T15:16:44;18.44;80.25
69543;SHT31;56762;49.494;11.768;2022-10-16T15:19:12;18.38;80.42
69543;SHT31;56762;49.494;11.768;2022-10-16T15:21:40;18.31;80.37
69543;SHT31;56762;49.494;11.768;2022-10-16T15:24:12;18.24;80.33
69543;SHT31;56762;49.494;11.768;2022-10-16T15:26:47;18.22;80.26
69543;SHT31;56762;49.494;11.768;2022-10-16T15:29:16;18.17;80.44
69543;SHT31;56762;49.494;11.768;2022-10-16T15:31:44;18.10;80.69
69543;SHT31;56762;49.494;11.768;2022-10-16T15:34:14;18.05;81.07
69543;SHT31;56762;49.494;11.768;2022-10-16T15:36:42;17.98;81.70
69543;SHT31;56762;49.494;11.768;2022-10-16T15:39:13;17.90;82.25
69543;SHT31;56762;49.494;11.768;2022-10-16T15:41:42;17.83;82.69
69543;SHT31;56762;49.494;11.768;2022-10-16T15:44:12;17.79;83.18
69543;SHT31;56762;49.494;11.768;2022-10-16T15:46:40;17.80;83.40
69543;SHT31;56762;49.494;11.768;2022-10-16T15:49:08;17.80;83.29
69543;SHT31;56762;49.494;11.768;2022-10-16T15:51:38;17.74;83.21
69543;SHT31;56762;49.494;11.768;2022-10-16T15:54:06;17.73;83.00
69543;SHT31;56762;49.494;11.768;2022-10-16T15:56:34;17.71;83.06